sensor_id;sensor_type;location;lat;lon;timestamp;P1;durP1;ratioP1;P2;durP2;ratioP2
39502;SDS011;26970;49.900;10.774;2022-07-06T00:00:37;3.67;;;2.30;;
39502;SDS011;26970;49.900;10.774;2022-07-06T00:03:03;5.65;;;2.30;;
39502;SDS011;26970;49.900;10.774;2022-07-06T00:05:28;3.90;;;2.10;;
39502;SDS011;26970;49.900;10.774;2022-07-06T00:07:54;3.58;;;2.30;;
39502;SDS011;26970;49.900;10.774;2022-07-06T00:10:20;4.30;;;2.10;;
39502;SDS011;26970;49.900;10.774;2022-07-06T00:12:45;4.97;;;2.30;;
39502;SDS011;26970;49.900;10.774;2022-07-06T00:15:11;3.58;;;2.20;;
39502;SDS011;26970;49.900;10.774;2022-07-06T00:17:36;3.85;;;2.40;;
39502;SDS011;26970;49.900;10.774;2022-07-06T00:20:02;4.03;;;2.45;;
39502;SDS011;26970;49.900;10.774;2022-07-06T00:22:28;4.28;;;2.10;;
39502;SDS011;26970;49.900;10.774;2022-07-06T00:24:53;6.15;;;2.35;;
39502;SDS011;26970;49.900;10.774;2022-07-06T00:27:19;3.40;;;2.08;;
39502;SDS011;26970;49.900;10.774;2022-07-06T00:29:44;5.95;;;2.30;;
39502;SDS011;26970;49.900;10.774;2022-07-06T00:32:10;6.10;;;2.25;;
39502;SDS011;26970;49.900;10.774;2022-07-06T00:34:36;6.00;;;2.20;;
39502;SDS011;26970;49.900;10.774;2022-07-06T00:37:04;3.80;;;2.20;;
39502;SDS011;26970;49.900;10.774;2022-07-06T00:39:31;6.18;;;2.55;;
39502;SDS011;26970;49.900;10.774;2022-07-06T00:41:56;4.63;;;1.88;;
39502;SDS011;26970;49.900;10.774;2022-07-06T00:44:22;6.25;;;2.20;;
39502;SDS011;26970;49.900;10.774;2022-07-06T00:46:48;7.95;;;2.38;;
39502;SDS011;26970;49.900;10.774;2022-07-06T00:49:13;7.97;;;2.45;;
39502;SDS011;26970;49.900;10.774;2022-07-06T00:51:57;4.57;;;2.30;;
39502;SDS011;26970;49.900;10.774;2022-07-06T00:54:24;3.42;;;2.30;;
39502;SDS011;26970;49.900;10.774;2022-07-06T00:56:50;3.78;;;2.40;;
39502;SDS011;26970;49.900;10.774;2022-07-06T00:59:16;5.50;;;2.60;;
39502;SDS011;26970;49.900;10.774;2022-07-06T01:01:41;5.05;;;2.15;;
39502;SDS011;26970;49.900;10.774;2022-07-06T01:04:07;4.47;;;2.22;;
39502;SDS011;26970;49.900;10.774;2022-07-06T01:06:32;6.03;;;2.33;;
39502;SDS011;26970;49.900;10.774;2022-07-06T01:08:58;2.85;;;2.13;;
39502;SDS011;26970;49.900;10.774;2022-07-06T01:11:24;3.90;;;1.92;;
39502;SDS011;26970;49.900;10.774;2022-07-06T01:13:50;4.03;;;2.25;;
39502;SDS011;26970;49.900;10.774;2022-07-06T01:16:17;8.25;;;2.67;;
39502;SDS011;26970;49.900;10.774;2022-07-06T01:18:43;3.60;;;2.70;;
39502;SDS011;26970;49.900;10.774;2022-07-06T01:21:12;6.38;;;2.63;;
39502;SDS011;26970;49.900;10.774;2022-07-06T01:23:43;5.25;;;2.65;;
39502;SDS011;26970;49.900;10.774;2022-07-06T01:26:14;6.05;;;2.85;;
39502;SDS011;26970;49.900;10.774;2022-07-06T01:28:41;6.68;;;2.55;;
39502;SDS011;26970;49.900;10.774;2022-07-06T01:31:13;4.28;;;2.33;;
39502;SDS011;26970;49.900;10.774;2022-07-06T01:33:49;5.07;;;2.30;;
39502;SDS011;26970;49.900;10.774;2022-07-06T01:36:17;5.03;;;2.45;;
39502;SDS011;26970;49.900;10.774;2022-07-06T01:38:43;3.97;;;2.20;;
39502;SDS011;26970;49.900;10.774;2022-07-06T01:41:10;6.25;;;2.60;;
39502;SDS011;26970;49.900;10.774;2022-07-06T01:43:36;4.68;;;2.65;;
39502;SDS011;26970;49.900;10.774;2022-07-06T01:46:02;5.90;;;2.63;;
39502;SDS011;26970;49.900;10.774;2022-07-06T01:48:27;7.30;;;2.65;;
39502;SDS011;26970;49.900;10.774;2022-07-06T01:50:53;7.72;;;3.78;;
39502;SDS011;26970;49.900;10.774;2022-07-06T01:53:19;3.70;;;2.60;;
39502;SDS011;26970;49.900;10.774;2022-07-06T01:55:44;6.25;;;2.80;;
39502;SDS011;26970;49.900;10.774;2022-07-06T01:58:10;5.63;;;2.40;;
39502;SDS011;26970;49.900;10.774;2022-07-06T02:00:35;4.28;;;2.40;;
39502;SDS011;26970;49.900;10.774;2022-07-06T02:03:01;5.60;;;2.38;;
39502;SDS011;26970;49.900;10.774;2022-07-06T02:05:26;4.65;;;2.75;;
39502;SDS011;26970;49.900;10.774;2022-07-06T02:07:52;4.38;;;2.35;;
39502;SDS011;26970;49.900;10.774;2022-07-06T02:10:17;5.50;;;2.63;;
39502;SDS011;26970;49.900;10.774;2022-07-06T02:12:43;5.18;;;2.58;;
39502;SDS011;26970;49.900;10.774;2022-07-06T02:15:08;4.65;;;2.47;;
39502;SDS011;26970;49.900;10.774;2022-07-06T02:17:34;6.07;;;2.72;;
39502;SDS011;26970;49.900;10.774;2022-07-06T02:20:00;8.45;;;2.80;;
39502;SDS011;26970;49.900;10.774;2022-07-06T02:22:25;9.85;;;2.78;;
39502;SDS011;26970;49.900;10.774;2022-07-06T02:24:51;8.05;;;2.60;;
39502;SDS011;26970;49.900;10.774;2022-07-06T02:27:16;3.17;;;2.35;;
39502;SDS011;26970;49.900;10.774;2022-07-06T02:29:42;5.05;;;2.70;;
39502;SDS011;26970;49.900;10.774;2022-07-06T02:32:07;4.45;;;2.58;;
39502;SDS011;26970;49.900;10.774;2022-07-06T02:34:33;4.85;;;2.38;;
39502;SDS011;26970;49.900;10.774;2022-07-06T02:36:58;4.38;;;2.35;;
39502;SDS011;26970;49.900;10.774;2022-07-06T02:39:25;4.00;;;2.60;;
39502;SDS011;26970;49.900;10.774;2022-07-06T02:41:50;4.28;;;2.50;;
39502;SDS011;26970;49.900;10.774;2022-07-06T02:44:16;4.72;;;2.67;;
39502;SDS011;26970;49.900;10.774;2022-07-06T02:46:42;3.92;;;2.45;;
39502;SDS011;26970;49.900;10.774;2022-07-06T02:49:07;5.00;;;2.50;;
39502;SDS011;26970;49.900;10.774;2022-07-06T02:51:33;5.43;;;2.40;;
39502;SDS011;26970;49.900;10.774;2022-07-06T02:53:58;5.75;;;2.55;;
39502;SDS011;26970;49.900;10.774;2022-07-06T02:56:24;7.15;;;2.60;;
39502;SDS011;26970;49.900;10.774;2022-07-06T02:58:49;5.15;;;2.40;;
39502;SDS011;26970;49.900;10.774;2022-07-06T03:01:15;6.70;;;2.58;;
39502;SDS011;26970;49.900;10.774;2022-07-06T03:03:40;6.25;;;2.35;;
39502;SDS011;26970;49.900;10.774;2022-07-06T03:06:06;6.40;;;2.45;;
39502;SDS011;26970;49.900;10.774;2022-07-06T03:08:31;4.53;;;2.50;;
39502;SDS011;26970;49.900;10.774;2022-07-06T03:10:59;4.03;;;2.33;;
39502;SDS011;26970;49.900;10.774;2022-07-06T03:13:24;3.88;;;2.42;;
39502;SDS011;26970;49.900;10.774;2022-07-06T03:15:50;4.05;;;2.45;;
39502;SDS011;26970;49.900;10.774;2022-07-06T03:18:15;3.10;;;2.13;;
39502;SDS011;26970;49.900;10.774;2022-07-06T03:20:41;6.15;;;2.40;;
39502;SDS011;26970;49.900;10.774;2022-07-06T03:23:06;3.80;;;2.20;;
39502;SDS011;26970;49.900;10.774;2022-07-06T03:25:32;8.30;;;2.78;;
39502;SDS011;26970;49.900;10.774;2022-07-06T03:27:58;6.50;;;2.22;;
39502;SDS011;26970;49.900;10.774;2022-07-06T03:30:23;4.63;;;2.50;;
39502;SDS011;26970;49.900;10.774;2022-07-06T03:32:48;6.78;;;2.22;;
39502;SDS011;26970;49.900;10.774;2022-07-06T03:35:14;3.90;;;2.35;;
39502;SDS011;26970;49.900;10.774;2022-07-06T03:37:40;4.22;;;2.40;;
39502;SDS011;26970;49.900;10.774;2022-07-06T03:40:05;6.35;;;2.40;;
39502;SDS011;26970;49.900;10.774;2022-07-06T03:42:31;3.90;;;2.25;;
39502;SDS011;26970;49.900;10.774;2022-07-06T03:44:57;3.80;;;2.10;;
39502;SDS011;26970;49.900;10.774;2022-07-06T03:47:22;3.90;;;2.13;;
39502;SDS011;26970;49.900;10.774;2022-07-06T03:49:48;5.90;;;2.30;;
39502;SDS011;26970;49.900;10.774;2022-07-06T03:52:13;3.92;;;2.40;;
39502;SDS011;26970;49.900;10.774;2022-07-06T03:54:39;4.80;;;2.20;;
39502;SDS011;26970;49.900;10.774;2022-07-06T03:57:04;3.60;;;2.20;;
39502;SDS011;26970;49.900;10.774;2022-07-06T03:59:30;6.05;;;2.30;;
39502;SDS011;26970;49.900;10.774;2022-07-06T04:01:56;4.55;;;2.15;;
39502;SDS011;26970;49.900;10.774;2022-07-06T04:04:21;3.90;;;2.30;;
39502;SDS011;26970;49.900;10.774;2022-07-06T04:06:47;4.18;;;2.28;;
39502;SDS011;26970;49.900;10.774;2022-07-06T04:09:12;5.43;;;2.60;;
39502;SDS011;26970;49.900;10.774;2022-07-06T04:11:38;3.85;;;1.88;;
39502;SDS011;26970;49.900;10.774;2022-07-06T04:14:03;4.13;;;2.38;;
39502;SDS011;26970;49.900;10.774;2022-07-06T04:16:29;5.13;;;2.13;;
39502;SDS011;26970;49.900;10.774;2022-07-06T04:18:54;2.97;;;2.00;;
39502;SDS011;26970;49.900;10.774;2022-07-06T04:21:20;3.45;;;2.20;;
39502;SDS011;26970;49.900;10.774;2022-07-06T04:23:45;4.22;;;2.08;;
39502;SDS011;26970;49.900;10.774;2022-07-06T04:26:11;4.28;;;2.38;;
39502;SDS011;26970;49.900;10.774;2022-07-06T04:28:36;3.55;;;2.20;;
39502;SDS011;26970;49.900;10.774;2022-07-06T04:31:02;4.32;;;2.10;;
39502;SDS011;26970;49.900;10.774;2022-07-06T04:33:27;3.53;;;1.90;;
39502;SDS011;26970;49.900;10.774;2022-07-06T04:35:53;4.80;;;2.30;;
39502;SDS011;26970;49.900;10.774;2022-07-06T04:38:19;3.33;;;2.10;;
39502;SDS011;26970;49.900;10.774;2022-07-06T04:40:44;3.28;;;2.03;;
39502;SDS011;26970;49.900;10.774;2022-07-06T04:43:11;3.17;;;1.90;;
39502;SDS011;26970;49.900;10.774;2022-07-06T04:45:37;5.45;;;2.00;;
39502;SDS011;26970;49.900;10.774;2022-07-06T04:48:02;2.97;;;2.00;;
39502;SDS011;26970;49.900;10.774;2022-07-06T04:50:28;6.72;;;2.60;;
39502;SDS011;26970;49.900;10.774;2022-07-06T04:52:54;3.92;;;2.00;;
39502;SDS011;26970;49.900;10.774;2022-07-06T04:55:20;3.30;;;2.03;;
39502;SDS011;26970;49.900;10.774;2022-07-06T04:57:45;5.15;;;1.98;;
39502;SDS011;26970;49.900;10.774;2022-07-06T05:00:11;3.95;;;2.00;;
39502;SDS011;26970;49.900;10.774;2022-07-06T05:02:37;4.28;;;2.08;;
39502;SDS011;26970;49.900;10.774;2022-07-06T05:05:03;5.03;;;1.88;;
39502;SDS011;26970;49.900;10.774;2022-07-06T05:07:29;5.30;;;1.83;;
39502;SDS011;26970;49.900;10.774;2022-07-06T05:09:57;4.78;;;2.20;;
39502;SDS011;26970;49.900;10.774;2022-07-06T05:12:22;2.80;;;2.00;;
39502;SDS011;26970;49.900;10.774;2022-07-06T05:14:48;3.17;;;2.10;;
39502;SDS011;26970;49.900;10.774;2022-07-06T05:17:13;4.07;;;1.98;;
39502;SDS011;26970;49.900;10.774;2022-07-06T05:19:39;5.68;;;2.40;;
39502;SDS011;26970;49.900;10.774;2022-07-06T05:22:04;5.68;;;2.15;;
39502;SDS011;26970;49.900;10.774;2022-07-06T05:24:30;4.78;;;2.20;;
39502;SDS011;26970;49.900;10.774;2022-07-06T05:26:55;3.40;;;2.08;;
39502;SDS011;26970;49.900;10.774;2022-07-06T05:29:21;6.03;;;2.40;;
39502;SDS011;26970;49.900;10.774;2022-07-06T05:31:47;5.20;;;2.35;;
39502;SDS011;26970;49.900;10.774;2022-07-06T05:34:12;4.82;;;2.50;;
39502;SDS011;26970;49.900;10.774;2022-07-06T05:36:38;8.73;;;2.13;;
39502;SDS011;26970;49.900;10.774;2022-07-06T05:39:03;3.75;;;2.15;;
39502;SDS011;26970;49.900;10.774;2022-07-06T05:41:29;6.95;;;2.20;;
39502;SDS011;26970;49.900;10.774;2022-07-06T05:43:54;3.38;;;2.28;;
39502;SDS011;26970;49.900;10.774;2022-07-06T05:46:20;3.83;;;2.08;;
39502;SDS011;26970;49.900;10.774;2022-07-06T05:48:46;5.70;;;2.55;;
39502;SDS011;26970;49.900;10.774;2022-07-06T05:51:30;4.55;;;2.08;;
39502;SDS011;26970;49.900;10.774;2022-07-06T05:53:55;3.42;;;2.20;;
39502;SDS011;26970;49.900;10.774;2022-07-06T05:56:21;5.45;;;2.15;;
39502;SDS011;26970;49.900;10.774;2022-07-06T05:58:47;4.20;;;2.05;;
39502;SDS011;26970;49.900;10.774;2022-07-06T06:01:12;5.50;;;1.90;;
39502;SDS011;26970;49.900;10.774;2022-07-06T06:03:38;5.15;;;2.00;;
39502;SDS011;26970;49.900;10.774;2022-07-06T06:06:03;4.80;;;2.20;;
39502;SDS011;26970;49.900;10.774;2022-07-06T06:08:29;5.70;;;2.25;;
39502;SDS011;26970;49.900;10.774;2022-07-06T06:10:55;3.10;;;1.92;;
39502;SDS011;26970;49.900;10.774;2022-07-06T06:13:20;4.18;;;2.35;;
39502;SDS011;26970;49.900;10.774;2022-07-06T06:15:46;6.63;;;2.45;;
39502;SDS011;26970;49.900;10.774;2022-07-06T06:18:11;5.43;;;2.08;;
39502;SDS011;26970;49.900;10.774;2022-07-06T06:20:37;6.05;;;2.17;;
39502;SDS011;26970;49.900;10.774;2022-07-06T06:23:03;6.32;;;2.42;;
39502;SDS011;26970;49.900;10.774;2022-07-06T06:25:30;5.50;;;2.97;;
39502;SDS011;26970;49.900;10.774;2022-07-06T06:27:57;5.65;;;2.10;;
39502;SDS011;26970;49.900;10.774;2022-07-06T06:30:23;5.22;;;2.10;;
39502;SDS011;26970;49.900;10.774;2022-07-06T06:32:48;4.95;;;2.25;;
39502;SDS011;26970;49.900;10.774;2022-07-06T06:35:14;7.72;;;2.00;;
39502;SDS011;26970;49.900;10.774;2022-07-06T06:37:40;6.38;;;2.05;;
39502;SDS011;26970;49.900;10.774;2022-07-06T06:40:07;5.88;;;2.20;;
39502;SDS011;26970;49.900;10.774;2022-07-06T06:42:35;4.47;;;2.10;;
39502;SDS011;26970;49.900;10.774;2022-07-06T06:45:02;5.25;;;1.80;;
39502;SDS011;26970;49.900;10.774;2022-07-06T06:47:28;6.38;;;1.92;;
39502;SDS011;26970;49.900;10.774;2022-07-06T06:49:54;8.57;;;2.35;;
39502;SDS011;26970;49.900;10.774;2022-07-06T06:52:19;5.88;;;2.20;;
39502;SDS011;26970;49.900;10.774;2022-07-06T06:54:45;3.70;;;2.40;;
39502;SDS011;26970;49.900;10.774;2022-07-06T06:57:10;6.72;;;2.20;;
39502;SDS011;26970;49.900;10.774;2022-07-06T06:59:36;3.38;;;1.83;;
39502;SDS011;26970;49.900;10.774;2022-07-06T07:02:02;5.40;;;2.20;;
39502;SDS011;26970;49.900;10.774;2022-07-06T07:04:28;3.55;;;2.15;;
39502;SDS011;26970;49.900;10.774;2022-07-06T07:06:54;7.05;;;2.05;;
39502;SDS011;26970;49.900;10.774;2022-07-06T07:09:20;3.03;;;2.00;;
39502;SDS011;26970;49.900;10.774;2022-07-06T07:11:45;5.30;;;2.30;;
39502;SDS011;26970;49.900;10.774;2022-07-06T07:14:11;7.45;;;2.20;;
39502;SDS011;26970;49.900;10.774;2022-07-06T07:16:36;6.70;;;2.15;;
39502;SDS011;26970;49.900;10.774;2022-07-06T07:19:02;5.63;;;2.10;;
39502;SDS011;26970;49.900;10.774;2022-07-06T07:21:27;5.13;;;2.45;;
39502;SDS011;26970;49.900;10.774;2022-07-06T07:23:53;6.45;;;2.10;;
39502;SDS011;26970;49.900;10.774;2022-07-06T07:26:18;4.20;;;2.10;;
39502;SDS011;26970;49.900;10.774;2022-07-06T07:28:44;4.00;;;1.92;;
39502;SDS011;26970;49.900;10.774;2022-07-06T07:31:09;4.60;;;1.95;;
39502;SDS011;26970;49.900;10.774;2022-07-06T07:33:35;4.35;;;2.00;;
39502;SDS011;26970;49.900;10.774;2022-07-06T07:36:00;4.07;;;1.83;;
39502;SDS011;26970;49.900;10.774;2022-07-06T07:38:26;3.45;;;1.77;;
39502;SDS011;26970;49.900;10.774;2022-07-06T07:40:54;8.43;;;1.95;;
39502;SDS011;26970;49.900;10.774;2022-07-06T07:43:20;2.75;;;1.80;;
39502;SDS011;26970;49.900;10.774;2022-07-06T07:45:46;2.83;;;1.88;;
39502;SDS011;26970;49.900;10.774;2022-07-06T07:48:12;5.93;;;2.10;;
39502;SDS011;26970;49.900;10.774;2022-07-06T07:50:40;5.38;;;1.80;;
39502;SDS011;26970;49.900;10.774;2022-07-06T07:53:05;6.15;;;2.38;;
39502;SDS011;26970;49.900;10.774;2022-07-06T07:55:31;4.65;;;2.05;;
39502;SDS011;26970;49.900;10.774;2022-07-06T07:57:57;11.50;;;2.22;;
39502;SDS011;26970;49.900;10.774;2022-07-06T08:00:22;4.50;;;1.90;;
39502;SDS011;26970;49.900;10.774;2022-07-06T08:02:49;5.07;;;2.00;;
39502;SDS011;26970;49.900;10.774;2022-07-06T08:05:14;4.72;;;1.95;;
39502;SDS011;26970;49.900;10.774;2022-07-06T08:07:41;5.32;;;2.25;;
39502;SDS011;26970;49.900;10.774;2022-07-06T08:10:07;4.45;;;1.90;;
39502;SDS011;26970;49.900;10.774;2022-07-06T08:12:34;6.15;;;2.00;;
39502;SDS011;26970;49.900;10.774;2022-07-06T08:15:00;5.63;;;2.08;;
39502;SDS011;26970;49.900;10.774;2022-07-06T08:17:26;4.25;;;2.00;;
39502;SDS011;26970;49.900;10.774;2022-07-06T08:19:51;4.97;;;2.22;;
39502;SDS011;26970;49.900;10.774;2022-07-06T08:22:17;4.65;;;2.00;;
39502;SDS011;26970;49.900;10.774;2022-07-06T08:24:42;3.92;;;2.20;;
39502;SDS011;26970;49.900;10.774;2022-07-06T08:27:08;6.40;;;2.22;;
39502;SDS011;26970;49.900;10.774;2022-07-06T08:29:33;5.97;;;1.83;;
39502;SDS011;26970;49.900;10.774;2022-07-06T08:31:59;4.80;;;2.10;;
39502;SDS011;26970;49.900;10.774;2022-07-06T08:34:24;5.60;;;2.38;;
39502;SDS011;26970;49.900;10.774;2022-07-06T08:36:50;7.00;;;2.50;;
39502;SDS011;26970;49.900;10.774;2022-07-06T08:39:16;2.58;;;1.70;;
39502;SDS011;26970;49.900;10.774;2022-07-06T08:41:42;3.92;;;1.80;;
39502;SDS011;26970;49.900;10.774;2022-07-06T08:44:13;3.42;;;2.03;;
39502;SDS011;26970;49.900;10.774;2022-07-06T08:46:40;5.95;;;2.22;;
39502;SDS011;26970;49.900;10.774;2022-07-06T08:49:06;5.53;;;1.95;;
39502;SDS011;26970;49.900;10.774;2022-07-06T08:51:34;3.22;;;1.80;;
39502;SDS011;26970;49.900;10.774;2022-07-06T08:54:02;5.03;;;2.10;;
39502;SDS011;26970;49.900;10.774;2022-07-06T08:56:28;6.40;;;2.17;;
39502;SDS011;26970;49.900;10.774;2022-07-06T08:58:57;6.70;;;2.33;;
39502;SDS011;26970;49.900;10.774;2022-07-06T09:01:22;4.32;;;2.20;;
39502;SDS011;26970;49.900;10.774;2022-07-06T09:03:49;10.60;;;2.20;;
39502;SDS011;26970;49.900;10.774;2022-07-06T09:06:19;8.82;;;2.08;;
39502;SDS011;26970;49.900;10.774;2022-07-06T09:08:49;6.68;;;1.95;;
39502;SDS011;26970;49.900;10.774;2022-07-06T09:11:20;4.45;;;2.10;;
39502;SDS011;26970;49.900;10.774;2022-07-06T09:13:49;5.38;;;2.30;;
39502;SDS011;26970;49.900;10.774;2022-07-06T09:17:14;7.97;;;2.20;;
39502;SDS011;26970;49.900;10.774;2022-07-06T09:19:45;6.53;;;2.10;;
39502;SDS011;26970;49.900;10.774;2022-07-06T09:22:11;4.90;;;2.42;;
39502;SDS011;26970;49.900;10.774;2022-07-06T09:24:52;6.40;;;2.40;;
39502;SDS011;26970;49.900;10.774;2022-07-06T09:27:25;5.93;;;2.30;;
39502;SDS011;26970;49.900;10.774;2022-07-06T09:29:51;7.28;;;2.80;;
39502;SDS011;26970;49.900;10.774;2022-07-06T09:32:19;6.38;;;2.45;;
39502;SDS011;26970;49.900;10.774;2022-07-06T09:34:46;4.63;;;2.50;;
39502;SDS011;26970;49.900;10.774;2022-07-06T09:37:12;5.80;;;2.60;;
39502;SDS011;26970;49.900;10.774;2022-07-06T09:39:40;5.85;;;2.10;;
39502;SDS011;26970;49.900;10.774;2022-07-06T09:42:08;3.33;;;1.98;;
39502;SDS011;26970;49.900;10.774;2022-07-06T09:44:34;8.07;;;2.45;;
39502;SDS011;26970;49.900;10.774;2022-07-06T09:47:03;4.93;;;2.47;;
39502;SDS011;26970;49.900;10.774;2022-07-06T09:52:00;4.25;;;2.22;;
39502;SDS011;26970;49.900;10.774;2022-07-06T09:54:27;5.20;;;2.33;;
39502;SDS011;26970;49.900;10.774;2022-07-06T09:56:53;3.40;;;1.90;;
39502;SDS011;26970;49.900;10.774;2022-07-06T09:59:20;4.93;;;2.00;;
39502;SDS011;26970;49.900;10.774;2022-07-06T10:01:48;4.93;;;2.40;;
39502;SDS011;26970;49.900;10.774;2022-07-06T10:04:16;4.60;;;2.30;;
39502;SDS011;26970;49.900;10.774;2022-07-06T10:06:45;4.90;;;2.20;;
39502;SDS011;26970;49.900;10.774;2022-07-06T10:09:12;4.15;;;1.90;;
39502;SDS011;26970;49.900;10.774;2022-07-06T10:11:49;3.20;;;2.00;;
39502;SDS011;26970;49.900;10.774;2022-07-06T10:14:17;7.70;;;1.98;;
39502;SDS011;26970;49.900;10.774;2022-07-06T10:16:45;5.95;;;1.95;;
39502;SDS011;26970;49.900;10.774;2022-07-06T10:19:11;4.88;;;2.10;;
39502;SDS011;26970;49.900;10.774;2022-07-06T10:21:37;5.35;;;2.10;;
39502;SDS011;26970;49.900;10.774;2022-07-06T10:24:04;4.43;;;2.03;;
39502;SDS011;26970;49.900;10.774;2022-07-06T10:26:32;5.75;;;2.10;;
39502;SDS011;26970;49.900;10.774;2022-07-06T10:28:59;5.78;;;2.05;;
39502;SDS011;26970;49.900;10.774;2022-07-06T10:31:26;3.38;;;1.50;;
39502;SDS011;26970;49.900;10.774;2022-07-06T10:33:53;3.95;;;1.92;;
39502;SDS011;26970;49.900;10.774;2022-07-06T10:36:20;4.85;;;1.90;;
39502;SDS011;26970;49.900;10.774;2022-07-06T10:38:48;4.07;;;1.70;;
39502;SDS011;26970;49.900;10.774;2022-07-06T10:41:15;7.43;;;1.88;;
39502;SDS011;26970;49.900;10.774;2022-07-06T10:43:42;3.97;;;1.88;;
39502;SDS011;26970;49.900;10.774;2022-07-06T10:46:09;3.53;;;1.92;;
39502;SDS011;26970;49.900;10.774;2022-07-06T10:48:46;4.55;;;2.00;;
39502;SDS011;26970;49.900;10.774;2022-07-06T10:51:33;4.75;;;1.90;;
39502;SDS011;26970;49.900;10.774;2022-07-06T10:54:04;6.47;;;1.90;;
39502;SDS011;26970;49.900;10.774;2022-07-06T10:59:12;4.78;;;1.25;;
39502;SDS011;26970;49.900;10.774;2022-07-06T11:04:46;3.50;;;1.58;;
39502;SDS011;26970;49.900;10.774;2022-07-06T11:07:16;5.75;;;1.55;;
39502;SDS011;26970;49.900;10.774;2022-07-06T11:10:01;4.68;;;1.80;;
39502;SDS011;26970;49.900;10.774;2022-07-06T11:12:27;4.10;;;1.80;;
39502;SDS011;26970;49.900;10.774;2022-07-06T11:14:53;3.88;;;1.73;;
39502;SDS011;26970;49.900;10.774;2022-07-06T11:17:22;5.50;;;1.60;;
39502;SDS011;26970;49.900;10.774;2022-07-06T11:19:58;7.47;;;1.80;;
39502;SDS011;26970;49.900;10.774;2022-07-06T11:22:36;4.13;;;1.77;;
39502;SDS011;26970;49.900;10.774;2022-07-06T11:25:03;5.22;;;2.00;;
39502;SDS011;26970;49.900;10.774;2022-07-06T11:27:30;4.78;;;1.55;;
39502;SDS011;26970;49.900;10.774;2022-07-06T11:29:56;5.78;;;1.73;;
39502;SDS011;26970;49.900;10.774;2022-07-06T11:32:25;2.45;;;1.70;;
39502;SDS011;26970;49.900;10.774;2022-07-06T11:34:52;4.25;;;2.17;;
39502;SDS011;26970;49.900;10.774;2022-07-06T11:37:18;8.10;;;1.98;;
39502;SDS011;26970;49.900;10.774;2022-07-06T11:39:45;9.48;;;3.17;;
39502;SDS011;26970;49.900;10.774;2022-07-06T11:42:15;3.97;;;1.60;;
39502;SDS011;26970;49.900;10.774;2022-07-06T11:44:43;3.97;;;1.90;;
39502;SDS011;26970;49.900;10.774;2022-07-06T11:47:10;2.38;;;1.35;;
39502;SDS011;26970;49.900;10.774;2022-07-06T11:49:37;3.10;;;1.60;;
39502;SDS011;26970;49.900;10.774;2022-07-06T11:52:07;2.88;;;1.55;;
39502;SDS011;26970;49.900;10.774;2022-07-06T11:54:35;3.78;;;1.50;;
39502;SDS011;26970;49.900;10.774;2022-07-06T11:57:01;5.10;;;2.00;;
39502;SDS011;26970;49.900;10.774;2022-07-06T11:59:30;5.47;;;1.70;;
39502;SDS011;26970;49.900;10.774;2022-07-06T12:04:24;4.75;;;1.70;;
39502;SDS011;26970;49.900;10.774;2022-07-06T12:06:50;3.50;;;1.70;;
39502;SDS011;26970;49.900;10.774;2022-07-06T12:09:16;3.03;;;1.58;;
39502;SDS011;26970;49.900;10.774;2022-07-06T12:11:43;6.85;;;1.70;;
39502;SDS011;26970;49.900;10.774;2022-07-06T12:14:15;1.75;;;1.33;;
39502;SDS011;26970;49.900;10.774;2022-07-06T12:16:42;3.35;;;1.80;;
39502;SDS011;26970;49.900;10.774;2022-07-06T12:19:08;3.38;;;1.60;;
39502;SDS011;26970;49.900;10.774;2022-07-06T12:21:41;3.13;;;1.60;;
39502;SDS011;26970;49.900;10.774;2022-07-06T12:24:09;3.75;;;1.60;;
39502;SDS011;26970;49.900;10.774;2022-07-06T12:26:38;2.58;;;1.27;;
39502;SDS011;26970;49.900;10.774;2022-07-06T12:29:06;6.17;;;1.80;;
39502;SDS011;26970;49.900;10.774;2022-07-06T12:31:47;2.30;;;1.50;;
39502;SDS011;26970;49.900;10.774;2022-07-06T12:36:46;6.30;;;1.50;;
39502;SDS011;26970;49.900;10.774;2022-07-06T12:39:14;4.22;;;1.60;;
39502;SDS011;26970;49.900;10.774;2022-07-06T12:44:15;2.95;;;1.30;;
39502;SDS011;26970;49.900;10.774;2022-07-06T12:46:48;2.72;;;1.40;;
39502;SDS011;26970;49.900;10.774;2022-07-06T12:49:19;4.95;;;1.42;;
39502;SDS011;26970;49.900;10.774;2022-07-06T12:54:15;3.85;;;1.42;;
39502;SDS011;26970;49.900;10.774;2022-07-06T13:04:54;2.75;;;1.60;;
39502;SDS011;26970;49.900;10.774;2022-07-06T13:07:24;4.57;;;1.58;;
39502;SDS011;26970;49.900;10.774;2022-07-06T13:09:51;3.42;;;1.63;;
39502;SDS011;26970;49.900;10.774;2022-07-06T13:12:16;5.60;;;1.60;;
39502;SDS011;26970;49.900;10.774;2022-07-06T13:14:42;3.97;;;1.50;;
39502;SDS011;26970;49.900;10.774;2022-07-06T13:17:08;4.07;;;1.80;;
39502;SDS011;26970;49.900;10.774;2022-07-06T13:19:34;4.32;;;1.80;;
39502;SDS011;26970;49.900;10.774;2022-07-06T13:21:59;3.83;;;1.73;;
39502;SDS011;26970;49.900;10.774;2022-07-06T13:24:25;8.57;;;1.63;;
39502;SDS011;26970;49.900;10.774;2022-07-06T13:26:53;3.60;;;1.60;;
39502;SDS011;26970;49.900;10.774;2022-07-06T13:29:18;4.63;;;1.50;;
39502;SDS011;26970;49.900;10.774;2022-07-06T13:31:44;3.65;;;1.50;;
39502;SDS011;26970;49.900;10.774;2022-07-06T13:34:10;3.20;;;1.70;;
39502;SDS011;26970;49.900;10.774;2022-07-06T13:36:36;3.28;;;1.40;;
39502;SDS011;26970;49.900;10.774;2022-07-06T13:39:01;2.65;;;1.50;;
39502;SDS011;26970;49.900;10.774;2022-07-06T13:41:28;2.45;;;1.60;;
39502;SDS011;26970;49.900;10.774;2022-07-06T13:43:53;4.63;;;1.50;;
39502;SDS011;26970;49.900;10.774;2022-07-06T13:46:19;3.53;;;1.30;;
39502;SDS011;26970;49.900;10.774;2022-07-06T13:48:46;3.55;;;1.70;;
39502;SDS011;26970;49.900;10.774;2022-07-06T13:51:12;2.95;;;1.60;;
39502;SDS011;26970;49.900;10.774;2022-07-06T13:53:37;4.97;;;1.50;;
39502;SDS011;26970;49.900;10.774;2022-07-06T13:56:03;2.50;;;1.60;;
39502;SDS011;26970;49.900;10.774;2022-07-06T13:58:29;8.88;;;1.70;;
39502;SDS011;26970;49.900;10.774;2022-07-06T14:00:54;2.90;;;1.70;;
39502;SDS011;26970;49.900;10.774;2022-07-06T14:03:20;3.47;;;1.50;;
39502;SDS011;26970;49.900;10.774;2022-07-06T14:05:52;2.67;;;1.48;;
39502;SDS011;26970;49.900;10.774;2022-07-06T14:08:18;4.75;;;1.50;;
39502;SDS011;26970;49.900;10.774;2022-07-06T14:10:43;4.63;;;1.65;;
39502;SDS011;26970;49.900;10.774;2022-07-06T14:13:09;3.92;;;1.60;;
39502;SDS011;26970;49.900;10.774;2022-07-06T14:15:35;7.95;;;1.42;;
39502;SDS011;26970;49.900;10.774;2022-07-06T14:18:00;3.00;;;1.50;;
39502;SDS011;26970;49.900;10.774;2022-07-06T14:20:26;2.10;;;1.30;;
39502;SDS011;26970;49.900;10.774;2022-07-06T14:22:51;5.28;;;1.60;;
39502;SDS011;26970;49.900;10.774;2022-07-06T14:25:17;3.75;;;1.60;;
39502;SDS011;26970;49.900;10.774;2022-07-06T14:27:42;4.80;;;1.83;;
39502;SDS011;26970;49.900;10.774;2022-07-06T14:30:08;5.25;;;1.75;;
39502;SDS011;26970;49.900;10.774;2022-07-06T14:32:34;3.70;;;1.40;;
39502;SDS011;26970;49.900;10.774;2022-07-06T14:35:00;3.97;;;1.50;;
39502;SDS011;26970;49.900;10.774;2022-07-06T14:37:25;6.35;;;1.73;;
39502;SDS011;26970;49.900;10.774;2022-07-06T14:39:51;4.50;;;1.50;;
39502;SDS011;26970;49.900;10.774;2022-07-06T14:42:17;4.82;;;1.50;;
39502;SDS011;26970;49.900;10.774;2022-07-06T14:44:42;3.20;;;1.30;;
39502;SDS011;26970;49.900;10.774;2022-07-06T14:47:08;5.75;;;1.50;;
39502;SDS011;26970;49.900;10.774;2022-07-06T14:49:33;9.27;;;1.50;;
39502;SDS011;26970;49.900;10.774;2022-07-06T14:51:59;3.10;;;1.60;;
39502;SDS011;26970;49.900;10.774;2022-07-06T14:54:25;1.80;;;1.20;;
39502;SDS011;26970;49.900;10.774;2022-07-06T14:56:51;2.20;;;1.30;;